sensor_id;sensor_type;location;lat;lon;timestamp;temperature;humidity
32107;DHT22;18622;51.998;10.440;2023-03-20T03:45:34;11.80;99.90
32107;DHT22;18622;51.998;10.440;2023-03-20T03:48:03;11.80;99.90
32107;DHT22;18622;51.998;10.440;2023-03-20T03:50:45;11.80;99.90
32107;DHT22;18622;51.998;10.440;2023-03-20T03:53:20;11.80;99.90
32107;DHT22;18622;51.998;10.440;2023-03-20T03:55:48;11.80;99.90
32107;DHT22;18622;51.998;10.440;2023-03-20T03:58:19;11.80;99.90
32107;DHT22;18622;51.998;10.440;2023-03-20T04:00:47;11.80;99.90
32107;DHT22;18622;51.998;10.440;2023-03-20T04:03:17;11.80;99.90
32107;DHT22;18622;51.998;10.440;2023-03-20T04:05:45;11.80;99.90
32107;DHT22;18622;51.998;10.440;2023-03-20T04:08:13;11.70;99.90
32107;DHT22;18622;51.998;10.440;2023-03-20T04:10:41;11.80;99.90
32107;DHT22;18622;51.998;10.440;2023-03-20T04:13:07;11.80;99.90
32107;DHT22;18622;51.998;10.440;2023-03-20T04:15:35;11.70;99.90
32107;DHT22;18622;51.998;10.440;2023-03-20T04:18:02;11.70;99.90
32107;DHT22;18622;51.998;10.440;2023-03-20T04:20:28;11.70;99.90
32107;DHT22;18622;51.998;10.440;2023-03-20T04:22:55;11.70;99.90
32107;DHT22;18622;51.998;10.440;2023-03-20T04:25:23;11.70;99.90
32107;DHT22;18622;51.998;10.440;2023-03-20T04:27:51;11.70;99.90
32107;DHT22;18622;51.998;10.440;2023-03-20T04:30:18;11.70;99.90
32107;DHT22;18622;51.998;10.440;2023-03-20T04:32:45;11.70;99.90
32107;DHT22;18622;51.998;10.440;2023-03-20T04:35:12;11.70;99.90
32107;DHT22;18622;51.998;10.440;2023-03-20T04:37:39;11.70;99.90
32107;DHT22;18622;51.998;10.440;2023-03-20T04:40:06;11.70;99.90
32107;DHT22;18622;51.998;10.440;2023-03-20T04:42:33;11.70;99.90
32107;DHT22;18622;51.998;10.440;2023-03-20T04:44:59;11.70;99.90
32107;DHT22;18622;51.998;10.440;2023-03-20T04:47:26;11.70;99.90
32107;DHT22;18622;51.998;10.440;2023-03-20T04:49:53;11.60;99.90
32107;DHT22;18622;51.998;10.440;2023-03-20T04:52:20;11.60;99.90
32107;DHT22;18622;51.998;10.440;2023-03-20T04:54:47;11.60;99.90
32107;DHT22;18622;51.998;10.440;2023-03-20T04:57:14;11.60;99.90
32107;DHT22;18622;51.998;10.440;2023-03-20T04:59:41;11.50;99.90
32107;DHT22;18622;51.998;10.440;2023-03-20T05:02:08;11.40;99.90
32107;DHT22;18622;51.998;10.440;2023-03-20T05:04:36;11.40;99.90
32107;DHT22;18622;51.998;10.440;2023-03-20T05:07:03;11.40;99.90
32107;DHT22;18622;51.998;10.440;2023-03-20T05:09:30;11.40;99.90
32107;DHT22;18622;51.998;10.440;2023-03-20T05:11:57;11.40;99.90
32107;DHT22;18622;51.998;10.440;2023-03-20T05:14:24;11.30;99.90
32107;DHT22;18622;51.998;10.440;2023-03-20T05:16:51;11.30;99.90
32107;DHT22;18622;51.998;10.440;2023-03-20T05:19:17;11.30;99.90
32107;DHT22;18622;51.998;10.440;2023-03-20T05:21:44;11.30;99.90
32107;DHT22;18622;51.998;10.440;2023-03-20T05:24:11;11.40;99.90
32107;DHT22;18622;51.998;10.440;2023-03-20T05:26:38;11.40;99.90
32107;DHT22;18622;51.998;10.440;2023-03-20T05:29:05;11.40;99.90
32107;DHT22;18622;51.998;10.440;2023-03-20T05:31:32;11.40;99.90
32107;DHT22;18622;51.998;10.440;2023-03-20T05:33:58;11.40;99.90
32107;DHT22;18622;51.998;10.440;2023-03-20T05:36:25;11.30;99.90
32107;DHT22;18622;51.998;10.440;2023-03-20T05:38:52;11.40;99.90
32107;DHT22;18622;51.998;10.440;2023-03-20T05:41:19;11.40;99.90
32107;DHT22;18622;51.998;10.440;2023-03-20T05:43:46;11.30;99.90
32107;DHT22;18622;51.998;10.440;2023-03-20T05:46:13;11.30;99.90
32107;DHT22;18622;51.998;10.440;2023-03-20T05:48:40;11.40;99.90
32107;DHT22;18622;51.998;10.440;2023-03-20T05:51:07;11.40;99.90
32107;DHT22;18622;51.998;10.440;2023-03-20T05:53:33;11.40;99.90
32107;DHT22;18622;51.998;10.440;2023-03-20T05:56:00;11.40;99.90
32107;DHT22;18622;51.998;10.440;2023-03-20T05:58:27;11.40;99.90
32107;DHT22;18622;51.998;10.440;2023-03-20T06:00:55;11.40;99.90
32107;DHT22;18622;51.998;10.440;2023-03-20T06:03:22;11.50;99.90
32107;DHT22;18622;51.998;10.440;2023-03-20T06:05:49;11.50;99.90
32107;DHT22;18622;51.998;10.440;2023-03-20T06:08:16;11.60;99.90
32107;DHT22;18622;51.998;10.440;2023-03-20T06:10:43;11.60;99.90
32107;DHT22;18622;51.998;10.440;2023-03-20T06:13:09;11.70;99.90
32107;DHT22;18622;51.998;10.440;2023-03-20T06:15:36;11.80;99.90
32107;DHT22;18622;51.998;10.440;2023-03-20T06:18:03;11.90;99.90
32107;DHT22;18622;51.998;10.440;2023-03-20T06:20:30;12.10;99.90
32107;DHT22;18622;51.998;10.440;2023-03-20T06:22:57;12.10;99.90
32107;DHT22;18622;51.998;10.440;2023-03-20T06:25:24;12.20;99.90
32107;DHT22;18622;51.998;10.440;2023-03-20T06:27:51;12.40;99.90
32107;DHT22;18622;51.998;10.440;2023-03-20T15:47:29;16.50;56.20
32107;DHT22;18622;51.998;10.440;2023-03-20T15:49:56;16.30;57.90
32107;DHT22;18622;51.998;10.440;2023-03-20T15:52:26;16.20;58.40
32107;DHT22;18622;51.998;10.440;2023-03-20T15:54:54;16.10;58.70
32107;DHT22;18622;51.998;10.440;2023-03-20T15:57:25;15.90;59.70
32107;DHT22;18622;51.998;10.440;2023-03-20T15:59:52;15.80;59.30
32107;DHT22;18622;51.998;10.440;2023-03-20T16:02:19;15.70;59.60
32107;DHT22;18622;51.998;10.440;2023-03-20T16:04:47;15.50;59.10
32107;DHT22;18622;51.998;10.440;2023-03-20T16:07:21;15.30;59.10
32107;DHT22;18622;51.998;10.440;2023-03-20T16:09:50;15.10;59.40
32107;DHT22;18622;51.998;10.440;2023-03-20T16:12:17;14.90;59.80
32107;DHT22;18622;51.998;10.440;2023-03-20T16:14:47;14.70;60.20
32107;DHT22;18622;51.998;10.440;2023-03-20T16:17:15;14.60;60.70
32107;DHT22;18622;51.998;10.440;2023-03-20T16:19:42;14.50;61.50
32107;DHT22;18622;51.998;10.440;2023-03-20T16:22:20;14.40;61.60
32107;DHT22;18622;51.998;10.440;2023-03-20T16:24:49;14.30;62.00
32107;DHT22;18622;51.998;10.440;2023-03-20T16:27:21;14.20;61.60
32107;DHT22;18622;51.998;10.440;2023-03-20T16:29:49;14.10;62.30
32107;DHT22;18622;51.998;10.440;2023-03-20T16:32:40;14.00;62.80
32107;DHT22;18622;51.998;10.440;2023-03-20T16:35:05;13.90;63.70
32107;DHT22;18622;51.998;10.440;2023-03-20T16:37:42;13.80;64.00
32107;DHT22;18622;51.998;10.440;2023-03-20T16:40:10;13.70;64.00
32107;DHT22;18622;51.998;10.440;2023-03-20T16:42:30;13.60;64.40
32107;DHT22;18622;51.998;10.440;2023-03-20T16:44:57;13.40;64.90
32107;DHT22;18622;51.998;10.440;2023-03-20T16:47:33;13.40;65.10
32107;DHT22;18622;51.998;10.440;2023-03-20T16:50:11;13.30;65.40
32107;DHT22;18622;51.998;10.440;2023-03-20T16:52:39;13.30;65.40
32107;DHT22;18622;51.998;10.440;2023-03-20T16:55:11;13.20;66.00
32107;DHT22;18622;51.998;10.440;2023-03-20T16:57:34;13.10;66.50
32107;DHT22;18622;51.998;10.440;2023-03-20T17:00:04;13.00;66.80
32107;DHT22;18622;51.998;10.440;2023-03-20T17:02:34;13.00;67.00
32107;DHT22;18622;51.998;10.440;2023-03-20T17:05:01;13.00;67.50
32107;DHT22;18622;51.998;10.440;2023-03-20T17:07:28;12.90;67.40
32107;DHT22;18622;51.998;10.440;2023-03-20T17:10:04;12.80;67.40
32107;DHT22;18622;51.998;10.440;2023-03-20T17:12:30;12.70;67.80
32107;DHT22;18622;51.998;10.440;2023-03-20T17:14:56;12.70;68.60
32107;DHT22;18622;51.998;10.440;2023-03-20T17:17:23;12.70;68.40
32107;DHT22;18622;51.998;10.440;2023-03-20T17:20:02;12.60;68.30
32107;DHT22;18622;51.998;10.440;2023-03-20T17:22:29;12.60;69.20
32107;DHT22;18622;51.998;10.440;2023-03-20T17:24:57;12.50;69.10
32107;DHT22;18622;51.998;10.440;2023-03-20T17:27:24;12.40;69.50
32107;DHT22;18622;51.998;10.440;2023-03-20T17:29:52;12.40;70.00
32107;DHT22;18622;51.998;10.440;2023-03-20T17:32:21;12.30;69.90
32107;DHT22;18622;51.998;10.440;2023-03-20T17:34:52;12.30;70.60
32107;DHT22;18622;51.998;10.440;2023-03-20T17:37:23;12.20;71.10
32107;DHT22;18622;51.998;10.440;2023-03-20T17:39:50;12.10;71.30
32107;DHT22;18622;51.998;10.440;2023-03-20T17:42:20;12.10;72.10
32107;DHT22;18622;51.998;10.440;2023-03-20T17:44:49;12.00;72.20
32107;DHT22;18622;51.998;10.440;2023-03-20T17:47:17;11.90;72.60
32107;DHT22;18622;51.998;10.440;2023-03-20T17:49:44;11.80;73.10
32107;DHT22;18622;51.998;10.440;2023-03-20T17:53:18;11.80;73.40
32107;DHT22;18622;51.998;10.440;2023-03-20T17:55:46;11.70;74.00
32107;DHT22;18622;51.998;10.440;2023-03-20T17:58:16;11.70;74.40
32107;DHT22;18622;51.998;10.440;2023-03-20T18:00:44;11.70;74.80
32107;DHT22;18622;51.998;10.440;2023-03-20T18:03:12;11.70;75.00
32107;DHT22;18622;51.998;10.440;2023-03-20T18:05:41;11.70;75.20
32107;DHT22;18622;51.998;10.440;2023-03-20T18:08:13;11.70;75.40
32107;DHT22;18622;51.998;10.440;2023-03-20T18:10:43;11.70;75.80
32107;DHT22;18622;51.998;10.440;2023-03-20T18:13:10;11.70;76.20
32107;DHT22;18622;51.998;10.440;2023-03-20T18:15:38;11.70;76.40
32107;DHT22;18622;51.998;10.440;2023-03-20T18:18:09;11.60;76.40
32107;DHT22;18622;51.998;10.440;2023-03-20T18:20:38;11.60;76.50
32107;DHT22;18622;51.998;10.440;2023-03-20T18:23:08;11.60;76.80
32107;DHT22;18622;51.998;10.440;2023-03-20T18:25:36;11.60;77.00
32107;DHT22;18622;51.998;10.440;2023-03-20T18:28:06;11.50;77.20
32107;DHT22;18622;51.998;10.440;2023-03-20T18:30:36;11.50;77.30
32107;DHT22;18622;51.998;10.440;2023-03-20T18:33:05;11.50;77.50
32107;DHT22;18622;51.998;10.440;2023-03-20T18:35:33;11.50;77.70
32107;DHT22;18622;51.998;10.440;2023-03-20T18:38:02;11.50;78.00
32107;DHT22;18622;51.998;10.440;2023-03-20T18:40:32;11.40;78.10
32107;DHT22;18622;51.998;10.440;2023-03-20T18:43:00;11.40;78.40
32107;DHT22;18622;51.998;10.440;2023-03-20T18:45:29;11.40;78.70
32107;DHT22;18622;51.998;10.440;2023-03-20T18:47:57;11.40;78.80
32107;DHT22;18622;51.998;10.440;2023-03-20T18:50:36;11.40;78.80
32107;DHT22;18622;51.998;10.440;2023-03-20T18:53:05;11.30;79.10
32107;DHT22;18622;51.998;10.440;2023-03-20T18:55:33;11.20;79.20
32107;DHT22;18622;51.998;10.440;2023-03-20T18:58:01;11.20;79.60
32107;DHT22;18622;51.998;10.440;2023-03-20T19:00:33;11.20;79.90
32107;DHT22;18622;51.998;10.440;2023-03-20T19:03:01;11.10;80.20
32107;DHT22;18622;51.998;10.440;2023-03-20T19:05:29;11.10;80.50
32107;DHT22;18622;51.998;10.440;2023-03-20T19:07:57;11.00;80.90
32107;DHT22;18622;51.998;10.440;2023-03-20T19:10:39;11.00;81.40
32107;DHT22;18622;51.998;10.440;2023-03-20T19:13:05;11.00;81.50
32107;DHT22;18622;51.998;10.440;2023-03-20T19:15:35;10.90;82.10
32107;DHT22;18622;51.998;10.440;2023-03-20T19:18:07;11.00;82.20
32107;DHT22;18622;51.998;10.440;2023-03-20T19:20:37;10.90;82.20
32107;DHT22;18622;51.998;10.440;2023-03-20T19:23:10;11.00;82.60
32107;DHT22;18622;51.998;10.440;2023-03-20T19:25:39;11.00;82.80
32107;DHT22;18622;51.998;10.440;2023-03-20T19:28:25;11.00;83.10
32107;DHT22;18622;51.998;10.440;2023-03-20T19:30:54;11.00;83.30
32107;DHT22;18622;51.998;10.440;2023-03-20T19:33:22;11.10;83.50
32107;DHT22;18622;51.998;10.440;2023-03-20T19:35:50;11.00;83.50
32107;DHT22;18622;51.998;10.440;2023-03-20T19:38:20;11.00;83.20
32107;DHT22;18622;51.998;10.440;2023-03-20T19:40:50;11.10;83.90
32107;DHT22;18622;51.998;10.440;2023-03-20T19:43:20;11.00;83.20
32107;DHT22;18622;51.998;10.440;2023-03-20T19:45:49;11.00;83.40
32107;DHT22;18622;51.998;10.440;2023-03-20T19:48:21;11.00;83.40
32107;DHT22;18622;51.998;10.440;2023-03-20T19:50:51;11.00;83.50
32107;DHT22;18622;51.998;10.440;2023-03-20T19:53:20;11.00;83.60
32107;DHT22;18622;51.998;10.440;2023-03-20T19:55:50;11.00;83.60
32107;DHT22;18622;51.998;10.440;2023-03-20T19:58:18;11.00;83.70
32107;DHT22;18622;51.998;10.440;2023-03-20T20:00:47;11.00;84.70
32107;DHT22;18622;51.998;10.440;2023-03-20T20:03:23;11.00;84.30
32107;DHT22;18622;51.998;10.440;2023-03-20T20:05:51;11.00;84.20
32107;DHT22;18622;51.998;10.440;2023-03-20T20:08:19;11.00;84.40
32107;DHT22;18622;51.998;10.440;2023-03-20T20:10:49;11.00;84.40
32107;DHT22;18622;51.998;10.440;2023-03-20T20:13:23;11.00;84.60
32107;DHT22;18622;51.998;10.440;2023-03-20T20:15:52;11.00;84.50
32107;DHT22;18622;51.998;10.440;2023-03-20T20:18:21;11.00;84.80
32107;DHT22;18622;51.998;10.440;2023-03-20T20:20:49;11.00;84.90
32107;DHT22;18622;51.998;10.440;2023-03-20T20:23:24;11.00;85.00
32107;DHT22;18622;51.998;10.440;2023-03-20T20:25:49;11.00;85.30
32107;DHT22;18622;51.998;10.440;2023-03-20T20:28:19;11.00;85.60
32107;DHT22;18622;51.998;10.440;2023-03-20T20:30:50;11.00;85.70
32107;DHT22;18622;51.998;10.440;2023-03-20T20:33:19;11.00;85.60
32107;DHT22;18622;51.998;10.440;2023-03-20T20:35:47;10.90;85.50
32107;DHT22;18622;51.998;10.440;2023-03-20T20:38:15;10.90;85.50
32107;DHT22;18622;51.998;10.440;2023-03-20T20:40:43;10.90;85.80
32107;DHT22;18622;51.998;10.440;2023-03-20T20:43:11;10.90;85.80
32107;DHT22;18622;51.998;10.440;2023-03-20T20:45:38;10.90;85.90
32107;DHT22;18622;51.998;10.440;2023-03-20T20:48:06;10.90;86.10
32107;DHT22;18622;51.998;10.440;2023-03-20T20:50:35;10.90;86.40
32107;DHT22;18622;51.998;10.440;2023-03-20T20:53:04;10.80;86.40
32107;DHT22;18622;51.998;10.440;2023-03-20T20:55:33;10.90;86.80
32107;DHT22;18622;51.998;10.440;2023-03-20T20:58:01;10.80;87.00
32107;DHT22;18622;51.998;10.440;2023-03-20T21:00:29;10.80;87.40
32107;DHT22;18622;51.998;10.440;2023-03-20T21:02:57;10.80;87.90
32107;DHT22;18622;51.998;10.440;2023-03-20T21:05:25;10.70;88.40
32107;DHT22;18622;51.998;10.440;2023-03-20T21:07:53;10.70;88.80
32107;DHT22;18622;51.998;10.440;2023-03-20T21:10:21;10.70;89.50
32107;DHT22;18622;51.998;10.440;2023-03-20T21:12:49;10.70;89.80
32107;DHT22;18622;51.998;10.440;2023-03-20T21:15:17;10.70;90.00
32107;DHT22;18622;51.998;10.440;2023-03-20T21:17:46;10.70;90.00
32107;DHT22;18622;51.998;10.440;2023-03-20T21:20:14;10.60;90.00
32107;DHT22;18622;51.998;10.440;2023-03-20T21:22:42;10.60;90.10
32107;DHT22;18622;51.998;10.440;2023-03-20T21:25:10;10.60;90.30
32107;DHT22;18622;51.998;10.440;2023-03-20T21:27:38;10.60;90.30
32107;DHT22;18622;51.998;10.440;2023-03-20T21:30:06;10.70;90.40
32107;DHT22;18622;51.998;10.440;2023-03-20T21:32:34;10.70;90.40
32107;DHT22;18622;51.998;10.440;2023-03-20T21:35:04;10.70;90.40
32107;DHT22;18622;51.998;10.440;2023-03-20T21:37:33;10.70;90.30
32107;DHT22;18622;51.998;10.440;2023-03-20T21:40:03;10.70;90.30
32107;DHT22;18622;51.998;10.440;2023-03-20T21:42:32;10.70;90.40
32107;DHT22;18622;51.998;10.440;2023-03-20T21:45:01;10.60;90.60
